createdAt,value
2022-12-31T00:00:58.614Z,3.62
2022-12-31T00:04:07.355Z,3.58
2022-12-31T00:07:15.272Z,3.61
2022-12-31T00:10:23.704Z,3.53
2022-12-31T00:13:30.398Z,3.57
2022-12-31T00:16:39.626Z,3.52
2022-12-31T00:19:46.283Z,3.50
2022-12-31T00:22:52.938Z,3.49
2022-12-31T00:26:02.359Z,3.59
2022-12-31T00:29:11.769Z,3.65
2022-12-31T00:32:17.963Z,3.54
2022-12-31T00:35:23.915Z,3.48
2022-12-31T00:38:28.962Z,3.60
2022-12-31T00:41:35.353Z,3.51
2022-12-31T00:44:43.644Z,3.47
2022-12-31T00:47:50.975Z,3.58
2022-12-31T00:50:56.320Z,3.55
2022-12-31T00:54:00.900Z,3.69
2022-12-31T00:57:05.623Z,3.58
2022-12-31T01:00:12.410Z,3.55
2022-12-31T01:03:17.118Z,3.64
2022-12-31T01:06:24.907Z,3.69
2022-12-31T01:09:28.643Z,3.60
2022-12-31T01:12:32.813Z,3.45
2022-12-31T01:15:38.587Z,3.50
2022-12-31T01:18:45.161Z,3.58
2022-12-31T01:21:50.791Z,3.58
2022-12-31T01:24:54.980Z,3.57
2022-12-31T01:27:58.971Z,3.59
2022-12-31T01:31:08.746Z,3.62
2022-12-31T01:34:14.784Z,3.53
2022-12-31T01:37:21.687Z,3.48
2022-12-31T01:40:26.194Z,3.44
2022-12-31T01:43:50.392Z,3.39
2022-12-31T01:46:56.798Z,3.41
2022-12-31T01:50:05.068Z,3.49
2022-12-31T01:53:11.734Z,3.43
2022-12-31T01:56:22.579Z,3.45
2022-12-31T01:59:31.670Z,3.38
2022-12-31T02:02:41.322Z,3.47
2022-12-31T02:05:56.796Z,3.53
2022-12-31T02:09:04.873Z,3.44
2022-12-31T02:12:12.620Z,3.36
2022-12-31T02:15:23.231Z,3.36
2022-12-31T02:18:32.829Z,3.40
2022-12-31T02:21:43.244Z,3.42
2022-12-31T02:24:51.122Z,3.42
2022-12-31T02:28:15.587Z,3.43
2022-12-31T02:31:45.498Z,3.41
2022-12-31T02:35:01.830Z,3.49
2022-12-31T02:38:17.092Z,3.66
2022-12-31T02:41:43.299Z,3.65
2022-12-31T02:44:51.166Z,3.49
2022-12-31T02:48:02.258Z,3.53
2022-12-31T02:51:28.663Z,3.49
2022-12-31T02:54:40.402Z,3.50
2022-12-31T02:57:52.742Z,3.63
2022-12-31T03:01:18.599Z,3.59
2022-12-31T03:04:38.519Z,3.44
2022-12-31T03:07:47.500Z,3.45
2022-12-31T03:10:58.696Z,3.49
2022-12-31T03:14:05.695Z,3.52
2022-12-31T03:17:12.990Z,3.61
2022-12-31T03:20:37.609Z,3.62
2022-12-31T03:23:51.350Z,3.49
2022-12-31T03:26:58.803Z,3.68
2022-12-31T03:30:07.813Z,3.68
2022-12-31T03:33:16.748Z,3.68
2022-12-31T03:36:28.325Z,3.58
2022-12-31T03:39:35.518Z,3.65
2022-12-31T03:42:43.471Z,3.61
2022-12-31T03:45:54.396Z,3.71
2022-12-31T03:49:03.965Z,3.72
2022-12-31T03:52:09.875Z,3.73
2022-12-31T03:55:17.618Z,3.65
2022-12-31T03:58:24.443Z,3.68
2022-12-31T04:01:32.738Z,3.69
2022-12-31T04:04:42.928Z,3.60
2022-12-31T04:07:53.250Z,3.60
2022-12-31T04:11:01.474Z,3.66
2022-12-31T04:14:11.384Z,3.63
2022-12-31T04:17:21.376Z,3.59
2022-12-31T04:20:31.398Z,3.60
2022-12-31T04:23:37.452Z,3.57
2022-12-31T04:26:45.650Z,3.55
2022-12-31T04:29:53.930Z,3.54
2022-12-31T04:32:59.372Z,3.67
2022-12-31T04:36:07.303Z,3.68
2022-12-31T04:39:14.554Z,3.71
2022-12-31T04:42:20.699Z,3.78
2022-12-31T04:45:27.475Z,3.92
2022-12-31T04:48:36.842Z,3.88
2022-12-31T04:51:44.064Z,3.84
2022-12-31T04:54:52.945Z,3.78
2022-12-31T04:57:58.731Z,3.74
2022-12-31T05:01:10.179Z,3.78
2022-12-31T05:04:17.428Z,3.64
2022-12-31T05:07:24.775Z,3.60
2022-12-31T05:10:32.662Z,3.62
2022-12-31T05:13:39.944Z,3.54
2022-12-31T05:16:47.071Z,3.67
2022-12-31T05:19:55.314Z,3.61
2022-12-31T05:23:01.792Z,3.55
2022-12-31T05:26:11.788Z,3.68
2022-12-31T05:29:21.386Z,3.54
2022-12-31T05:32:28.783Z,3.65
2022-12-31T05:35:37.050Z,3.59
2022-12-31T05:38:44.747Z,3.71
2022-12-31T05:41:53.773Z,3.61
2022-12-31T05:45:02.453Z,3.64
2022-12-31T05:48:08.008Z,3.63
2022-12-31T05:51:14.937Z,3.72
2022-12-31T05:54:23.664Z,3.62
2022-12-31T05:57:31.638Z,3.60
2022-12-31T06:00:37.671Z,3.65
2022-12-31T06:03:46.159Z,3.70
2022-12-31T06:06:53.264Z,3.75
2022-12-31T06:09:59.229Z,3.66
2022-12-31T06:13:05.316Z,3.71
2022-12-31T06:16:15.793Z,3.64
2022-12-31T06:19:22.118Z,3.59
2022-12-31T06:22:29.459Z,3.58
2022-12-31T06:25:36.368Z,3.56
2022-12-31T06:28:47.478Z,3.49
2022-12-31T06:31:53.630Z,3.53
2022-12-31T06:35:00.351Z,3.69
2022-12-31T06:38:09.583Z,3.85
2022-12-31T06:41:17.139Z,3.78
2022-12-31T06:44:23.720Z,3.77
2022-12-31T06:47:30.552Z,3.72
2022-12-31T06:50:38.852Z,3.63
2022-12-31T06:53:46.193Z,3.60
2022-12-31T06:56:53.401Z,3.58
2022-12-31T07:00:01.648Z,3.69
2022-12-31T07:03:16.357Z,3.65
2022-12-31T07:06:46.224Z,3.83
2022-12-31T07:09:55.390Z,3.83
2022-12-31T07:13:12.413Z,3.93
2022-12-31T07:16:23.118Z,3.90
2022-12-31T07:19:41.517Z,3.89
2022-12-31T07:22:48.066Z,3.96
2022-12-31T07:25:57.893Z,3.82
2022-12-31T07:29:13.449Z,3.80
2022-12-31T07:32:27.983Z,3.72
2022-12-31T07:35:52.519Z,3.85
2022-12-31T07:39:13.513Z,3.94
2022-12-31T07:42:29.372Z,3.98
2022-12-31T07:45:50.389Z,3.97
2022-12-31T07:48:56.797Z,4.06
2022-12-31T07:52:03.240Z,3.90
2022-12-31T07:55:10.323Z,3.96
2022-12-31T07:58:24.128Z,4.11
2022-12-31T08:01:31.984Z,4.12
2022-12-31T08:04:43.090Z,4.05
2022-12-31T08:07:52.411Z,4.19
2022-12-31T08:11:08.139Z,4.29
2022-12-31T08:14:16.377Z,4.35
2022-12-31T08:17:23.211Z,4.63
2022-12-31T08:20:31.991Z,4.75
2022-12-31T08:23:51.347Z,4.87
2022-12-31T08:27:18.440Z,5.07
2022-12-31T08:30:26.657Z,5.20
2022-12-31T08:33:52.312Z,5.10
2022-12-31T08:37:03.596Z,5.13
2022-12-31T08:40:17.059Z,4.99
2022-12-31T08:43:26.450Z,5.00
2022-12-31T08:46:47.729Z,5.12
2022-12-31T08:49:53.704Z,5.15
2022-12-31T08:53:01.330Z,5.24
2022-12-31T08:56:37.429Z,5.49
2022-12-31T08:59:53.956Z,5.63
2022-12-31T09:03:08.718Z,5.65
2022-12-31T09:06:16.285Z,5.83
2022-12-31T09:09:47.450Z,5.93
2022-12-31T09:13:05.994Z,5.89
2022-12-31T09:16:32.705Z,5.90
2022-12-31T09:19:38.703Z,5.94
2022-12-31T09:22:45.234Z,5.94
2022-12-31T09:26:07.495Z,6.04
2022-12-31T09:29:23.586Z,5.95
2022-12-31T09:32:28.976Z,5.55
2022-12-31T09:35:37.182Z,5.50
2022-12-31T09:38:57.545Z,5.77
2022-12-31T09:42:20.190Z,5.77
2022-12-31T09:45:35.724Z,5.52
2022-12-31T09:48:51.766Z,5.29
2022-12-31T09:51:57.072Z,5.73
2022-12-31T09:55:23.259Z,5.95
2022-12-31T09:58:34.247Z,5.98
2022-12-31T10:01:48.266Z,6.04
2022-12-31T10:05:03.433Z,6.39
2022-12-31T10:08:16.270Z,6.22
2022-12-31T10:11:40.988Z,6.39
2022-12-31T10:15:06.840Z,6.38
2022-12-31T10:18:34.482Z,6.72
2022-12-31T10:21:43.484Z,7.08
2022-12-31T10:25:09.174Z,7.18
2022-12-31T10:28:19.884Z,6.64
2022-12-31T10:31:32.312Z,6.87
2022-12-31T10:34:53.712Z,7.13
2022-12-31T10:38:03.455Z,7.07
2022-12-31T10:41:08.247Z,6.72
2022-12-31T10:44:20.839Z,6.81
2022-12-31T10:47:44.124Z,6.95
2022-12-31T10:50:52.575Z,6.68
2022-12-31T10:54:11.231Z,6.54
2022-12-31T10:57:18.513Z,6.69
2022-12-31T11:00:24.512Z,6.42
2022-12-31T11:03:43.026Z,6.58
2022-12-31T11:07:09.872Z,6.57
2022-12-31T11:10:20.534Z,6.34
2022-12-31T11:13:34.229Z,6.53
2022-12-31T11:16:38.617Z,6.60
2022-12-31T11:19:59.624Z,6.74
2022-12-31T11:23:32.799Z,6.72
2022-12-31T11:26:57.587Z,6.56
2022-12-31T11:30:08.569Z,6.80
2022-12-31T11:33:27.584Z,6.64
2022-12-31T11:36:39.392Z,6.79
2022-12-31T11:40:04.692Z,7.14
2022-12-31T11:43:17.350Z,7.16
2022-12-31T11:46:36.694Z,7.18
2022-12-31T11:49:56.767Z,7.08
2022-12-31T11:53:03.741Z,7.43
2022-12-31T11:56:20.845Z,7.48
2022-12-31T11:59:29.380Z,7.50
2022-12-31T12:02:39.372Z,7.48
2022-12-31T12:05:47.595Z,7.71
2022-12-31T12:08:54.460Z,7.80
2022-12-31T12:12:05.737Z,7.52
2022-12-31T12:15:18.005Z,7.57
2022-12-31T12:18:29.865Z,7.82
2022-12-31T12:21:37.322Z,8.00
2022-12-31T12:24:54.047Z,8.00
2022-12-31T12:28:04.297Z,8.13
2022-12-31T12:31:18.677Z,8.18
2022-12-31T12:34:28.991Z,8.32
2022-12-31T12:37:37.360Z,8.31
2022-12-31T12:40:54.605Z,8.23
2022-12-31T12:44:06.509Z,8.28
2022-12-31T12:47:19.678Z,7.92
2022-12-31T12:50:40.890Z,8.08
2022-12-31T12:53:54.331Z,8.18
2022-12-31T12:57:20.622Z,8.31
2022-12-31T13:00:34.483Z,7.74
2022-12-31T13:04:23.372Z,7.91
2022-12-31T13:07:32.697Z,7.89
2022-12-31T13:10:44.118Z,7.83
2022-12-31T13:13:53.195Z,8.03
2022-12-31T13:17:19.556Z,7.55
2022-12-31T13:20:37.076Z,7.57
2022-12-31T13:23:50.317Z,7.54
2022-12-31T13:26:59.836Z,7.61
2022-12-31T13:30:27.623Z,7.63
2022-12-31T13:33:39.074Z,7.71
2022-12-31T13:36:49.167Z,7.37
2022-12-31T13:39:59.671Z,7.30
2022-12-31T13:43:09.489Z,7.42
2022-12-31T13:46:23.234Z,7.52
2022-12-31T13:49:46.397Z,7.68
2022-12-31T13:53:09.006Z,7.45
2022-12-31T13:56:20.668Z,7.60
2022-12-31T13:59:29.581Z,7.53
2022-12-31T14:02:44.698Z,7.53
2022-12-31T14:06:00.873Z,7.61
2022-12-31T14:09:07.655Z,7.67
2022-12-31T14:12:17.195Z,7.42
2022-12-31T14:15:46.923Z,7.40
2022-12-31T14:18:54.898Z,7.47
2022-12-31T14:22:17.119Z,7.46
2022-12-31T14:25:27.045Z,7.66
2022-12-31T14:28:43.057Z,7.65
2022-12-31T14:32:05.148Z,7.56
2022-12-31T14:35:18.345Z,7.55
2022-12-31T14:38:37.663Z,7.50
2022-12-31T14:42:18.689Z,7.34
2022-12-31T14:45:34.671Z,7.51
2022-12-31T14:48:55.810Z,7.36
2022-12-31T14:52:10.770Z,7.28
2022-12-31T14:55:16.462Z,7.19
2022-12-31T14:58:42.974Z,7.16
2022-12-31T15:01:51.463Z,7.07
2022-12-31T15:05:14.991Z,7.01
2022-12-31T15:08:32.734Z,6.98
2022-12-31T15:11:51.615Z,7.00
2022-12-31T15:14:59.768Z,6.97
2022-12-31T15:18:29.548Z,6.99
2022-12-31T15:21:38.458Z,6.94
2022-12-31T15:24:48.285Z,6.90
2022-12-31T15:27:58.964Z,6.89
2022-12-31T15:31:19.661Z,6.93
2022-12-31T15:34:35.444Z,6.96
2022-12-31T15:37:44.098Z,6.96
2022-12-31T15:40:52.838Z,6.97
2022-12-31T15:44:16.931Z,6.97
2022-12-31T15:47:30.150Z,6.97
2022-12-31T15:50:39.007Z,6.96
2022-12-31T15:53:54.021Z,6.94
2022-12-31T15:57:04.228Z,6.92
2022-12-31T16:00:18.299Z,6.97
2022-12-31T16:03:25.408Z,6.96
2022-12-31T16:06:35.376Z,6.94
2022-12-31T16:09:42.020Z,6.93
2022-12-31T16:12:49.378Z,6.95
2022-12-31T16:16:04.978Z,6.97
2022-12-31T16:19:27.288Z,7.00
2022-12-31T16:22:39.128Z,6.98
2022-12-31T16:25:47.181Z,6.98
2022-12-31T16:28:53.636Z,6.89
2022-12-31T16:32:00.747Z,6.83
2022-12-31T16:35:23.940Z,6.77
2022-12-31T16:38:36.195Z,6.67
2022-12-31T16:41:43.832Z,6.61
2022-12-31T16:44:52.768Z,6.53
2022-12-31T16:48:04.994Z,6.43
2022-12-31T16:51:17.166Z,6.50
2022-12-31T16:54:35.323Z,6.47
2022-12-31T16:57:42.290Z,6.42
2022-12-31T17:00:52.944Z,6.25
2022-12-31T17:04:05.521Z,6.16
2022-12-31T17:07:30.226Z,6.06
2022-12-31T17:10:37.941Z,5.99
2022-12-31T17:13:55.002Z,6.00
2022-12-31T17:17:07.722Z,6.02
2022-12-31T17:20:22.883Z,5.96
2022-12-31T17:23:33.326Z,5.94
2022-12-31T17:26:44.007Z,6.01
2022-12-31T17:29:52.384Z,6.04
2022-12-31T17:33:03.673Z,6.05
2022-12-31T17:36:23.386Z,6.03
2022-12-31T17:39:45.617Z,6.02
2022-12-31T17:42:54.766Z,5.97
2022-12-31T17:46:00.647Z,6.08
2022-12-31T17:49:06.478Z,6.04
2022-12-31T17:52:16.878Z,6.08
2022-12-31T17:55:24.275Z,6.05
2022-12-31T17:58:34.147Z,5.91
2022-12-31T18:01:43.306Z,5.88
2022-12-31T18:04:51.070Z,5.78
2022-12-31T18:07:58.354Z,5.63
2022-12-31T18:11:17.408Z,5.55
2022-12-31T18:14:23.850Z,5.46
2022-12-31T18:17:32.226Z,5.35
2022-12-31T18:20:42.382Z,5.30
2022-12-31T18:23:49.414Z,5.22
2022-12-31T18:26:56.680Z,5.11
2022-12-31T18:30:06.263Z,5.06
2022-12-31T18:33:15.634Z,5.01
2022-12-31T18:36:23.279Z,5.04
2022-12-31T18:39:28.934Z,5.11
2022-12-31T18:42:37.503Z,5.04
2022-12-31T18:45:45.392Z,4.99
2022-12-31T18:48:55.795Z,4.98
2022-12-31T18:52:05.750Z,4.98
2022-12-31T18:55:33.797Z,5.02
2022-12-31T18:58:39.631Z,5.08
2022-12-31T19:01:47.988Z,5.15
2022-12-31T19:04:54.999Z,5.28
2022-12-31T19:08:01.208Z,5.36
2022-12-31T19:11:14.699Z,5.32
2022-12-31T19:14:23.487Z,5.36
2022-12-31T19:17:29.943Z,5.23
2022-12-31T19:20:37.584Z,5.24
2022-12-31T19:23:45.807Z,5.29
2022-12-31T19:26:56.098Z,5.21
2022-12-31T19:30:05.537Z,5.19
2022-12-31T19:33:14.592Z,5.10
2022-12-31T19:36:21.389Z,4.99
2022-12-31T19:39:30.849Z,4.89
2022-12-31T19:42:39.498Z,5.11
2022-12-31T19:45:48.787Z,5.15
2022-12-31T19:48:57.958Z,4.91
2022-12-31T19:52:11.046Z,4.76
2022-12-31T19:55:20.840Z,4.66
2022-12-31T19:58:28.318Z,4.60
2022-12-31T20:01:34.525Z,4.52
2022-12-31T20:04:42.158Z,4.50
2022-12-31T20:07:48.008Z,4.40
2022-12-31T20:10:59.627Z,4.38
2022-12-31T20:14:07.370Z,4.42
2022-12-31T20:17:13.748Z,4.49
2022-12-31T20:20:21.963Z,4.56
2022-12-31T20:23:28.044Z,4.51
2022-12-31T20:26:37.008Z,4.47
2022-12-31T20:29:46.054Z,4.43
2022-12-31T20:32:56.019Z,4.36
2022-12-31T20:36:05.733Z,4.34
2022-12-31T20:39:11.260Z,4.35
2022-12-31T20:42:17.372Z,4.29
2022-12-31T20:45:20.408Z,4.29
2022-12-31T20:48:25.070Z,4.32
2022-12-31T20:51:29.677Z,4.28
2022-12-31T20:54:34.016Z,4.19
2022-12-31T20:57:38.117Z,4.18
2022-12-31T21:00:42.901Z,4.21
2022-12-31T21:04:06.954Z,4.15
2022-12-31T21:07:18.137Z,4.12
2022-12-31T21:10:26.118Z,4.06
2022-12-31T21:13:35.026Z,4.03
2022-12-31T21:16:43.071Z,3.99
2022-12-31T21:19:51.214Z,4.16
2022-12-31T21:22:57.791Z,4.14
2022-12-31T21:26:05.743Z,4.08
2022-12-31T21:29:12.557Z,4.15
2022-12-31T21:32:19.360Z,4.32
2022-12-31T21:35:45.635Z,4.57
2022-12-31T21:38:57.668Z,4.33
2022-12-31T21:42:03.556Z,4.21
2022-12-31T21:45:12.050Z,4.14
2022-12-31T21:48:23.972Z,4.11
2022-12-31T21:51:32.805Z,4.13
2022-12-31T21:54:58.799Z,4.27
2022-12-31T22:01:50.574Z,4.22
2022-12-31T22:05:02.229Z,4.14
2022-12-31T22:08:09.248Z,4.05
2022-12-31T22:11:20.470Z,3.97
2022-12-31T22:14:26.334Z,3.98
2022-12-31T22:17:36.714Z,3.91
2022-12-31T22:20:46.342Z,3.91
2022-12-31T22:23:55.434Z,3.91
2022-12-31T22:27:27.822Z,3.92
2022-12-31T22:30:26.290Z,3.88
2022-12-31T22:33:30.784Z,3.80
2022-12-31T22:36:35.600Z,3.80
2022-12-31T22:39:44.004Z,3.69
2022-12-31T22:42:53.503Z,3.62
2022-12-31T22:46:09.622Z,3.55
2022-12-31T22:49:19.263Z,3.46
2022-12-31T22:52:25.977Z,3.43
2022-12-31T22:55:35.473Z,3.39
2022-12-31T22:58:43.443Z,3.49
2022-12-31T23:01:51.315Z,3.33
2022-12-31T23:05:16.052Z,3.26
2022-12-31T23:08:24.950Z,3.26
2022-12-31T23:11:34.185Z,3.32
2022-12-31T23:15:01.089Z,3.35
2022-12-31T23:18:26.434Z,3.33
2022-12-31T23:21:53.509Z,3.29
2022-12-31T23:25:00.122Z,3.30
2022-12-31T23:28:10.795Z,3.42
2022-12-31T23:31:17.374Z,3.40
2022-12-31T23:34:24.763Z,3.32
2022-12-31T23:37:30.379Z,3.29
2022-12-31T23:40:37.995Z,3.25
2022-12-31T23:43:46.559Z,3.23
2022-12-31T23:46:54.565Z,3.25
2022-12-31T23:50:03.210Z,3.21
2022-12-31T23:53:11.219Z,3.17
2022-12-31T23:56:23.264Z,3.12
2022-12-31T23:59:31.060Z,3.11
